createdAt,value
2023-03-07T00:00:47.619Z,74.86
2023-03-07T00:03:15.834Z,75.04
2023-03-07T00:05:42.670Z,74.35
2023-03-07T00:08:09.757Z,74.83
2023-03-07T00:10:39.158Z,75.51
2023-03-07T00:13:06.113Z,76.33
2023-03-07T00:15:32.948Z,75.41
2023-03-07T00:17:59.456Z,75.86
2023-03-07T00:20:26.001Z,75.28
2023-03-07T00:22:52.703Z,74.79
2023-03-07T00:25:19.318Z,75.56
2023-03-07T00:27:46.209Z,75.59
2023-03-07T00:30:13.675Z,75.80
2023-03-07T00:32:40.295Z,75.21
2023-03-07T00:35:07.176Z,76.11
2023-03-07T00:37:33.760Z,76.52
2023-03-07T00:40:00.430Z,76.50
2023-03-07T00:42:26.977Z,76.97
2023-03-07T00:44:53.561Z,76.56
2023-03-07T00:47:20.191Z,77.14
2023-03-07T00:49:46.957Z,77.30
2023-03-07T00:52:13.500Z,76.38
2023-03-07T00:54:40.103Z,77.75
2023-03-07T00:57:06.683Z,76.33
2023-03-07T00:59:33.318Z,77.07
2023-03-07T01:01:59.908Z,76.23
2023-03-07T01:04:26.467Z,77.00
2023-03-07T01:06:53.418Z,78.09
2023-03-07T01:09:19.987Z,78.27
2023-03-07T01:11:46.539Z,77.18
2023-03-07T01:14:13.172Z,77.13
2023-03-07T01:16:39.784Z,77.35
2023-03-07T01:19:08.277Z,77.68
2023-03-07T01:21:37.789Z,78.49
2023-03-07T01:24:10.325Z,78.22
2023-03-07T01:26:37.114Z,77.93
2023-03-07T01:29:05.654Z,77.44
2023-03-07T01:31:32.588Z,77.65
2023-03-07T01:33:59.677Z,77.94
2023-03-07T01:36:33.077Z,78.99
2023-03-07T01:39:18.137Z,79.13
2023-03-07T01:41:45.725Z,78.03
2023-03-07T01:44:25.018Z,78.01
2023-03-07T01:46:56.417Z,78.05
2023-03-07T01:49:40.004Z,78.09
2023-03-07T01:52:25.381Z,77.57
2023-03-07T01:54:55.119Z,77.73
2023-03-07T01:57:29.972Z,77.52
2023-03-07T01:59:57.629Z,77.27
2023-03-07T02:02:24.684Z,78.31
2023-03-07T02:04:57.217Z,78.34
2023-03-07T02:07:25.356Z,78.89
2023-03-07T02:09:52.978Z,78.49
2023-03-07T02:12:22.771Z,78.29
2023-03-07T02:14:50.035Z,77.59
2023-03-07T02:17:16.993Z,77.99
2023-03-07T02:20:05.725Z,77.65
2023-03-07T02:22:32.289Z,79.51
2023-03-07T02:25:02.535Z,78.63
2023-03-07T02:27:30.604Z,78.86
2023-03-07T02:29:57.286Z,79.80
2023-03-07T02:32:23.840Z,79.70
2023-03-07T02:34:50.370Z,79.15
2023-03-07T02:37:26.130Z,79.10
2023-03-07T02:39:53.498Z,78.39
2023-03-07T02:42:28.264Z,79.48
2023-03-07T02:44:59.602Z,78.52
2023-03-07T02:47:26.738Z,78.37
2023-03-07T02:49:53.767Z,79.12
2023-03-07T02:52:21.764Z,78.95
2023-03-07T02:54:48.753Z,78.50
2023-03-07T02:57:15.691Z,78.22
2023-03-07T02:59:42.495Z,79.43
2023-03-07T03:02:09.010Z,78.86
2023-03-07T03:04:35.532Z,78.97
2023-03-07T03:07:02.200Z,77.80
2023-03-07T03:09:28.770Z,77.46
2023-03-07T03:11:55.481Z,76.90
2023-03-07T03:14:21.998Z,77.82
2023-03-07T03:16:49.499Z,77.95
2023-03-07T03:19:16.020Z,77.29
2023-03-07T03:21:43.779Z,78.42
2023-03-07T03:24:10.768Z,78.52
2023-03-07T03:26:37.676Z,77.26
2023-03-07T03:29:05.193Z,76.79
2023-03-07T03:31:32.810Z,76.79
2023-03-07T03:33:59.690Z,77.06
2023-03-07T03:36:27.065Z,77.03
2023-03-07T03:38:54.550Z,78.65
2023-03-07T03:41:21.366Z,78.17
2023-03-07T03:43:48.223Z,77.71
2023-03-07T03:46:15.203Z,77.57
2023-03-07T03:48:41.864Z,76.74
2023-03-07T03:51:14.601Z,76.78
2023-03-07T03:53:41.498Z,77.53
2023-03-07T03:56:15.829Z,77.36
2023-03-07T03:58:42.611Z,77.16
2023-03-07T04:01:11.494Z,77.41
2023-03-07T04:03:40.580Z,77.52
2023-03-07T04:06:09.878Z,77.72
2023-03-07T04:08:37.027Z,77.55
2023-03-07T04:11:04.896Z,76.99
2023-03-07T04:13:32.887Z,76.89
2023-03-07T04:15:59.542Z,76.16
2023-03-07T04:18:26.247Z,75.97
2023-03-07T04:20:52.990Z,76.23
2023-03-07T04:23:20.701Z,77.41
2023-03-07T04:25:52.134Z,77.41
2023-03-07T04:28:19.482Z,77.91
2023-03-07T04:30:47.183Z,79.04
2023-03-07T04:33:13.749Z,79.13
2023-03-07T04:35:40.576Z,78.75
2023-03-07T04:38:07.251Z,79.48
2023-03-07T04:40:34.794Z,77.85
2023-03-07T04:43:01.664Z,79.38
2023-03-07T04:45:28.204Z,79.53
2023-03-07T04:47:54.675Z,78.85
2023-03-07T04:50:21.187Z,79.66
2023-03-07T04:52:47.957Z,79.84
2023-03-07T04:55:14.979Z,79.53
2023-03-07T04:57:41.830Z,78.99
2023-03-07T05:00:10.040Z,79.93
2023-03-07T05:02:37.403Z,79.49
2023-03-07T05:05:04.942Z,79.09
2023-03-07T05:07:32.342Z,78.95
2023-03-07T05:09:58.925Z,78.96
2023-03-07T05:12:25.613Z,78.75
2023-03-07T05:14:52.061Z,79.21
2023-03-07T05:17:19.564Z,79.28
2023-03-07T05:19:46.230Z,79.91
2023-03-07T05:22:13.036Z,79.39
2023-03-07T05:24:39.575Z,79.19
2023-03-07T05:27:06.076Z,77.62
2023-03-07T05:29:32.607Z,78.51
2023-03-07T05:31:59.343Z,77.68
2023-03-07T05:34:25.876Z,77.16
2023-03-07T05:36:52.663Z,78.16
2023-03-07T05:39:19.190Z,77.66
2023-03-07T05:41:45.709Z,77.35
2023-03-07T05:44:12.322Z,77.77
2023-03-07T05:46:38.979Z,78.11
2023-03-07T05:49:05.798Z,79.12
2023-03-07T05:51:32.308Z,80.18
2023-03-07T05:53:58.932Z,79.88
2023-03-07T05:56:25.473Z,80.92
2023-03-07T05:58:52.025Z,80.11
2023-03-07T06:01:18.776Z,80.61
2023-03-07T06:03:45.382Z,79.11
2023-03-07T06:06:14.882Z,79.35
2023-03-07T06:08:41.385Z,80.29
2023-03-07T06:11:09.326Z,80.64
2023-03-07T06:13:35.870Z,80.45
2023-03-07T06:16:02.896Z,81.08
2023-03-07T06:18:29.567Z,80.61
2023-03-07T06:20:58.602Z,79.96
2023-03-07T06:23:29.661Z,80.16
2023-03-07T06:25:56.959Z,79.91
2023-03-07T06:28:24.109Z,79.43
2023-03-07T06:30:50.863Z,79.75
2023-03-07T06:33:18.138Z,79.62
2023-03-07T06:35:45.436Z,80.25
2023-03-07T06:38:14.385Z,80.58
2023-03-07T06:40:40.927Z,80.15
2023-03-07T06:43:07.619Z,79.79
2023-03-07T06:45:34.180Z,79.44
2023-03-07T06:48:00.743Z,78.73
2023-03-07T06:50:35.193Z,80.17
2023-03-07T06:53:02.205Z,80.05
2023-03-07T06:55:28.826Z,80.62
2023-03-07T06:57:55.316Z,79.53
2023-03-07T07:00:22.719Z,79.40
2023-03-07T07:02:50.111Z,79.05
2023-03-07T07:05:17.187Z,80.05
2023-03-07T07:07:43.826Z,79.19
2023-03-07T07:10:11.144Z,78.22
2023-03-07T07:12:37.800Z,77.83
2023-03-07T07:15:05.756Z,78.69
2023-03-07T07:17:35.521Z,79.82
2023-03-07T07:20:06.417Z,78.57
2023-03-07T07:22:33.403Z,79.29
2023-03-07T07:24:59.965Z,78.81
2023-03-07T07:27:28.341Z,80.20
2023-03-07T07:29:54.853Z,79.76
2023-03-07T07:32:21.469Z,78.89
2023-03-07T07:34:48.115Z,79.08
2023-03-07T07:37:14.818Z,78.77
2023-03-07T07:39:43.786Z,79.28
2023-03-07T07:42:13.304Z,79.94
2023-03-07T07:44:39.924Z,80.31
2023-03-07T07:47:07.254Z,79.66
2023-03-07T07:49:33.809Z,79.73
2023-03-07T07:52:00.369Z,80.59
2023-03-07T07:54:27.017Z,80.44
2023-03-07T07:56:53.829Z,80.82
2023-03-07T07:59:21.799Z,80.78
2023-03-07T08:01:50.788Z,80.80
2023-03-07T08:04:17.398Z,80.13
2023-03-07T08:06:44.323Z,80.29
2023-03-07T08:09:11.264Z,80.60
2023-03-07T08:11:37.799Z,79.50
2023-03-07T08:14:04.641Z,79.16
2023-03-07T08:16:31.647Z,79.77
2023-03-07T08:18:58.369Z,79.47
2023-03-07T08:21:26.088Z,80.02
2023-03-07T08:23:55.836Z,80.73
2023-03-07T08:26:23.046Z,80.85
2023-03-07T08:28:49.549Z,80.56
2023-03-07T08:31:18.764Z,81.81
2023-03-07T08:33:48.522Z,81.52
2023-03-07T08:36:15.763Z,80.96
2023-03-07T08:38:42.844Z,81.14
2023-03-07T08:41:10.190Z,81.39
2023-03-07T08:43:39.129Z,80.66
2023-03-07T08:46:06.311Z,81.36
2023-03-07T08:48:33.006Z,80.44
2023-03-07T08:51:08.024Z,80.22
2023-03-07T08:53:34.604Z,79.43
2023-03-07T08:56:01.225Z,79.61
2023-03-07T08:58:27.952Z,80.50
2023-03-07T09:00:54.500Z,80.25
2023-03-07T09:03:21.241Z,78.26
2023-03-07T09:05:47.811Z,79.65
2023-03-07T09:08:14.913Z,79.84
2023-03-07T09:10:41.462Z,78.90
2023-03-07T09:13:08.049Z,78.67
2023-03-07T09:15:34.668Z,78.38
2023-03-07T09:18:01.252Z,78.14
2023-03-07T09:20:27.812Z,76.22
2023-03-07T09:22:54.360Z,77.67
2023-03-07T09:25:21.118Z,76.96
2023-03-07T09:27:47.686Z,76.44
2023-03-07T09:30:15.303Z,76.36
2023-03-07T09:32:42.393Z,76.02
2023-03-07T09:35:10.292Z,77.50
2023-03-07T09:37:36.956Z,78.31
2023-03-07T09:40:08.469Z,78.10
2023-03-07T09:43:05.606Z,76.96
2023-03-07T09:45:52.159Z,76.28
2023-03-07T09:48:40.287Z,75.03
2023-03-07T09:51:17.429Z,74.55
2023-03-07T09:54:04.873Z,75.84
2023-03-07T09:56:43.006Z,74.59
2023-03-07T09:59:22.764Z,73.61
2023-03-07T10:01:53.391Z,73.95
2023-03-07T10:04:26.225Z,74.59
2023-03-07T10:06:58.029Z,73.43
2023-03-07T10:09:25.366Z,73.45
2023-03-07T10:12:18.257Z,72.20
2023-03-07T10:14:56.088Z,72.88
2023-03-07T10:17:42.916Z,72.79
2023-03-07T10:20:34.572Z,74.28
2023-03-07T10:23:18.576Z,73.14
2023-03-07T10:25:55.686Z,72.55
2023-03-07T10:28:27.623Z,73.83
2023-03-07T10:31:19.003Z,72.85
2023-03-07T10:33:47.843Z,73.36
2023-03-07T10:36:19.789Z,73.59
2023-03-07T10:38:57.664Z,72.91
2023-03-07T10:41:24.641Z,72.56
2023-03-07T10:43:52.655Z,72.26
2023-03-07T10:46:25.899Z,71.91
2023-03-07T10:49:13.894Z,72.29
2023-03-07T10:52:05.312Z,73.61
2023-03-07T10:54:34.172Z,73.21
2023-03-07T10:57:17.807Z,72.97
2023-03-07T10:59:47.500Z,71.90
2023-03-07T11:02:36.392Z,71.79
2023-03-07T11:05:23.893Z,71.97
2023-03-07T11:07:50.701Z,71.83
2023-03-07T11:10:46.775Z,72.21
2023-03-07T11:13:21.963Z,72.84
2023-03-07T11:15:49.158Z,72.04
2023-03-07T11:18:43.164Z,72.60
2023-03-07T11:21:30.219Z,72.79
2023-03-07T11:24:05.259Z,73.24
2023-03-07T11:26:38.576Z,73.45
2023-03-07T11:29:09.760Z,73.45
2023-03-07T11:32:14.393Z,72.28
2023-03-07T11:34:46.909Z,72.30
2023-03-07T11:37:39.040Z,71.16
2023-03-07T11:40:22.951Z,72.50
2023-03-07T11:43:12.444Z,73.71
2023-03-07T11:45:53.775Z,73.29
2023-03-07T11:48:48.292Z,73.61
2023-03-07T11:51:44.860Z,73.09
2023-03-07T11:54:26.547Z,73.00
2023-03-07T11:56:56.386Z,71.87
2023-03-07T11:59:50.815Z,71.56
2023-03-07T12:02:52.826Z,71.33
2023-03-07T12:05:47.541Z,71.77
2023-03-07T12:08:21.971Z,71.74
2023-03-07T12:10:55.778Z,72.61
2023-03-07T12:13:22.296Z,73.51
2023-03-07T12:16:05.401Z,73.25
2023-03-07T12:18:34.791Z,72.82
2023-03-07T12:21:07.415Z,72.10
2023-03-07T12:23:39.226Z,72.96
2023-03-07T12:26:43.371Z,73.56
2023-03-07T12:29:40.907Z,73.48
2023-03-07T12:32:13.001Z,73.07
2023-03-07T12:34:46.428Z,73.38
2023-03-07T12:37:17.274Z,73.02
2023-03-07T12:39:52.470Z,74.15
2023-03-07T12:42:42.290Z,72.79
2023-03-07T12:45:12.977Z,73.33
2023-03-07T12:47:54.953Z,72.44
2023-03-07T12:50:34.264Z,74.06
2023-03-07T12:53:12.910Z,74.49
2023-03-07T12:55:44.260Z,72.46
2023-03-07T12:58:32.301Z,71.58
2023-03-07T13:01:04.107Z,71.06
2023-03-07T13:03:39.141Z,70.95
2023-03-07T13:06:07.079Z,73.04
2023-03-07T13:08:34.599Z,71.68
2023-03-07T13:11:01.072Z,70.91
2023-03-07T13:13:43.313Z,69.83
2023-03-07T13:16:40.514Z,70.03
2023-03-07T13:19:35.290Z,68.74
2023-03-07T13:22:03.476Z,70.01
2023-03-07T13:24:34.986Z,70.40
2023-03-07T13:27:13.692Z,69.09
2023-03-07T13:30:08.073Z,68.88
2023-03-07T13:32:56.035Z,67.06
2023-03-07T13:35:31.642Z,66.56
2023-03-07T13:37:59.908Z,66.44
2023-03-07T13:40:35.470Z,65.57
2023-03-07T13:43:03.426Z,67.78
2023-03-07T13:45:39.073Z,67.87
2023-03-07T13:48:11.316Z,70.89
2023-03-07T13:50:43.982Z,70.96
2023-03-07T13:53:20.790Z,71.93
2023-03-07T13:55:59.964Z,72.07
2023-03-07T13:58:39.525Z,70.38
2023-03-07T14:01:30.993Z,68.33
2023-03-07T14:04:04.316Z,68.07
2023-03-07T14:06:35.167Z,69.17
2023-03-07T14:09:05.131Z,68.15
2023-03-07T14:11:39.245Z,68.56
2023-03-07T14:14:15.804Z,68.59
2023-03-07T14:16:42.344Z,68.64
2023-03-07T14:19:50.814Z,70.90
2023-03-07T14:22:26.578Z,69.99
2023-03-07T14:25:08.460Z,71.04
2023-03-07T14:27:52.332Z,72.46
2023-03-07T14:30:19.582Z,71.81
2023-03-07T14:32:46.245Z,72.05
2023-03-07T14:35:15.392Z,70.78
2023-03-07T14:37:43.862Z,70.16
2023-03-07T14:40:25.274Z,69.82
2023-03-07T14:43:17.111Z,71.25
2023-03-07T14:45:58.429Z,72.31
2023-03-07T14:48:28.203Z,71.26
2023-03-07T14:50:54.886Z,72.48
2023-03-07T14:53:29.551Z,72.68
2023-03-07T14:55:58.708Z,71.95
2023-03-07T14:58:27.549Z,72.54
2023-03-07T15:01:03.813Z,71.23
2023-03-07T15:03:31.410Z,70.66
2023-03-07T15:06:02.718Z,72.48
2023-03-07T15:08:30.555Z,71.60
2023-03-07T15:11:07.596Z,72.11
2023-03-07T15:13:45.907Z,72.37
2023-03-07T15:16:27.163Z,71.49
2023-03-07T15:18:57.280Z,72.66
2023-03-07T15:21:26.290Z,72.67
2023-03-07T15:23:54.400Z,72.78
2023-03-07T15:26:26.494Z,73.24
2023-03-07T15:29:20.480Z,73.42
2023-03-07T15:31:53.184Z,72.79
2023-03-07T15:34:27.246Z,73.94
2023-03-07T15:36:54.031Z,73.94
2023-03-07T15:39:34.304Z,72.48
2023-03-07T15:42:03.953Z,72.07
2023-03-07T15:44:30.737Z,73.59
2023-03-07T15:46:59.454Z,73.36
2023-03-07T15:50:04.868Z,72.64
2023-03-07T15:52:39.536Z,73.44
2023-03-07T15:55:20.744Z,72.69
2023-03-07T15:57:59.644Z,72.44
2023-03-07T16:00:36.554Z,70.94
2023-03-07T16:03:26.236Z,70.85
2023-03-07T16:05:53.763Z,70.28
2023-03-07T16:08:21.065Z,71.06
2023-03-07T16:11:05.556Z,71.43
2023-03-07T16:13:39.933Z,71.57
2023-03-07T16:16:28.400Z,71.31
2023-03-07T16:18:57.674Z,71.82
2023-03-07T16:21:24.857Z,70.81
2023-03-07T16:23:51.465Z,71.82
2023-03-07T16:26:21.679Z,72.16
2023-03-07T16:28:49.474Z,72.34
2023-03-07T16:31:17.255Z,72.87
2023-03-07T16:33:44.855Z,74.46
2023-03-07T16:36:14.874Z,75.65
2023-03-07T16:38:41.465Z,75.58
2023-03-07T16:41:21.915Z,75.74
2023-03-07T16:43:56.797Z,75.59
2023-03-07T16:46:23.991Z,76.17
2023-03-07T16:48:50.566Z,75.18
2023-03-07T16:51:20.948Z,75.31
2023-03-07T16:53:48.990Z,75.51
2023-03-07T16:56:25.953Z,75.23
2023-03-07T16:58:52.775Z,75.04
2023-03-07T17:01:19.334Z,74.84
2023-03-07T17:03:46.120Z,74.45
2023-03-07T17:06:14.600Z,73.38
2023-03-07T17:08:41.295Z,75.27
2023-03-07T17:11:17.955Z,73.95
2023-03-07T17:13:45.126Z,74.55
2023-03-07T17:16:14.366Z,73.73
2023-03-07T17:18:41.438Z,73.82
2023-03-07T17:21:14.621Z,73.54
2023-03-07T17:23:42.148Z,72.55
2023-03-07T17:26:17.246Z,72.59
2023-03-07T17:28:44.058Z,71.72
2023-03-07T17:31:13.161Z,71.29
2023-03-07T17:33:39.863Z,71.26
2023-03-07T17:36:06.824Z,71.87
2023-03-07T17:38:33.328Z,73.08
2023-03-07T17:40:59.954Z,73.11
2023-03-07T17:43:26.822Z,71.94
2023-03-07T17:45:53.435Z,72.57
2023-03-07T17:48:19.949Z,72.40
2023-03-07T17:50:46.834Z,72.27
2023-03-07T17:53:13.362Z,73.22
2023-03-07T17:55:39.913Z,72.59
2023-03-07T17:58:10.062Z,73.35
2023-03-07T18:00:40.324Z,72.94
2023-03-07T18:03:07.081Z,72.57
2023-03-07T18:05:33.835Z,72.72
2023-03-07T18:08:00.581Z,73.86
2023-03-07T18:10:27.112Z,74.57
2023-03-07T18:12:53.796Z,74.65
2023-03-07T18:15:22.247Z,75.24
2023-03-07T18:17:50.240Z,75.34
2023-03-07T18:20:21.781Z,74.87
2023-03-07T18:22:48.804Z,73.24
2023-03-07T18:25:16.378Z,73.14
2023-03-07T18:27:44.040Z,73.49
2023-03-07T18:30:11.970Z,74.06
2023-03-07T18:32:38.736Z,73.35
2023-03-07T18:35:05.763Z,73.88
2023-03-07T18:37:32.241Z,73.73
2023-03-07T18:39:58.730Z,74.15
2023-03-07T18:42:25.341Z,75.35
2023-03-07T18:44:51.949Z,73.40
2023-03-07T18:47:18.571Z,72.74
2023-03-07T18:49:45.614Z,73.71
2023-03-07T18:52:12.286Z,73.83
2023-03-07T18:54:38.828Z,72.20
2023-03-07T18:57:05.370Z,72.26
2023-03-07T18:59:32.008Z,72.47
2023-03-07T19:02:02.928Z,72.80
2023-03-07T19:04:30.367Z,71.68
2023-03-07T19:06:58.118Z,71.90
2023-03-07T19:09:26.105Z,71.50
2023-03-07T19:11:52.898Z,72.33
2023-03-07T19:14:19.424Z,72.46
2023-03-07T19:16:46.146Z,72.21
2023-03-07T19:19:12.748Z,72.93
2023-03-07T19:21:39.539Z,73.09
2023-03-07T19:24:07.740Z,72.54
2023-03-07T19:26:34.427Z,71.67
2023-03-07T19:29:01.094Z,72.09
2023-03-07T19:31:30.098Z,72.09
2023-03-07T19:33:57.199Z,72.68
2023-03-07T19:36:27.316Z,74.13
2023-03-07T19:38:56.249Z,72.51
2023-03-07T19:41:24.740Z,72.44
2023-03-07T19:43:52.011Z,72.54
2023-03-07T19:46:19.860Z,71.93
2023-03-07T19:48:46.568Z,72.69
2023-03-07T19:51:22.612Z,72.86
2023-03-07T19:53:49.332Z,73.83
2023-03-07T19:56:23.071Z,74.04
2023-03-07T19:58:50.416Z,74.37
2023-03-07T20:01:19.802Z,74.62
2023-03-07T20:03:47.725Z,73.01
2023-03-07T20:06:19.638Z,74.60
2023-03-07T20:08:51.370Z,73.76
2023-03-07T20:11:20.124Z,74.69
2023-03-07T20:13:48.198Z,73.27
2023-03-07T20:16:16.506Z,72.75
2023-03-07T20:18:43.917Z,72.10
2023-03-07T20:21:12.515Z,72.53
2023-03-07T20:23:40.053Z,74.92
2023-03-07T20:26:09.005Z,74.58
2023-03-07T20:28:36.473Z,73.71
2023-03-07T20:31:05.718Z,74.02
2023-03-07T20:33:35.845Z,74.14
2023-03-07T20:36:05.874Z,74.10
2023-03-07T20:38:33.694Z,74.14
2023-03-07T20:41:05.360Z,75.24
2023-03-07T20:43:32.781Z,74.91
2023-03-07T20:46:12.678Z,73.66
2023-03-07T20:48:40.194Z,74.21
2023-03-07T20:51:22.160Z,74.30
2023-03-07T20:53:57.211Z,75.50
2023-03-07T20:56:25.864Z,74.58
2023-03-07T20:58:53.700Z,73.26
2023-03-07T21:01:21.152Z,71.31
2023-03-07T21:03:51.556Z,71.72
2023-03-07T21:06:18.509Z,71.93
2023-03-07T21:08:47.325Z,72.03
2023-03-07T21:11:16.889Z,72.43
2023-03-07T21:13:45.852Z,74.11
2023-03-07T21:16:21.040Z,73.23
2023-03-07T21:18:49.828Z,72.67
2023-03-07T21:21:19.495Z,73.65
2023-03-07T21:23:49.093Z,74.03
2023-03-07T21:26:21.424Z,73.68
2023-03-07T21:28:50.457Z,74.81
2023-03-07T21:31:21.237Z,75.34
2023-03-07T21:33:52.640Z,74.74
2023-03-07T21:36:19.661Z,74.25
2023-03-07T21:38:46.467Z,74.86
2023-03-07T21:41:14.345Z,74.97
2023-03-07T21:43:41.320Z,75.21
2023-03-07T21:46:10.217Z,75.47
2023-03-07T21:48:37.293Z,74.79
2023-03-07T21:51:04.552Z,75.32
2023-03-07T21:53:31.693Z,76.99
2023-03-07T21:56:03.577Z,75.50
2023-03-07T21:58:30.940Z,75.59
2023-03-07T22:00:57.885Z,74.69
2023-03-07T22:03:25.951Z,73.80
2023-03-07T22:05:54.845Z,75.20
2023-03-07T22:08:22.241Z,74.41
2023-03-07T22:11:00.395Z,75.20
2023-03-07T22:13:27.967Z,74.30
2023-03-07T22:15:58.738Z,74.72
2023-03-07T22:18:25.749Z,74.13
2023-03-07T22:20:52.469Z,74.89
2023-03-07T22:23:19.281Z,74.46
2023-03-07T22:25:45.833Z,74.46
2023-03-07T22:28:12.682Z,73.70
2023-03-07T22:30:39.176Z,74.59
2023-03-07T22:33:05.675Z,74.19
2023-03-07T22:35:32.158Z,74.07
2023-03-07T22:37:58.655Z,73.71
2023-03-07T22:40:25.158Z,72.29
2023-03-07T22:42:52.514Z,73.45
2023-03-07T22:45:19.245Z,73.80
2023-03-07T22:47:48.564Z,74.23
2023-03-07T22:50:15.298Z,73.21
2023-03-07T22:52:41.899Z,74.14
2023-03-07T22:55:08.871Z,72.93
2023-03-07T22:57:35.410Z,74.87
2023-03-07T23:00:02.016Z,75.04
2023-03-07T23:02:28.589Z,74.57
2023-03-07T23:04:55.127Z,74.82
2023-03-07T23:07:22.516Z,74.58
2023-03-07T23:09:49.102Z,75.59
2023-03-07T23:12:15.641Z,75.69
2023-03-07T23:14:42.467Z,75.21
2023-03-07T23:17:11.105Z,75.22
2023-03-07T23:19:37.718Z,75.15
2023-03-07T23:22:04.239Z,75.59
2023-03-07T23:24:31.276Z,75.99
2023-03-07T23:26:57.771Z,75.40
2023-03-07T23:29:24.559Z,74.97
2023-03-07T23:31:51.087Z,74.67
2023-03-07T23:34:19.491Z,75.25
2023-03-07T23:36:46.543Z,75.43
2023-03-07T23:39:13.104Z,74.89
2023-03-07T23:41:39.647Z,74.81
2023-03-07T23:44:06.313Z,74.72
2023-03-07T23:46:33.252Z,74.11
2023-03-07T23:48:59.991Z,74.67
2023-03-07T23:51:30.685Z,74.15
2023-03-07T23:53:57.317Z,73.58
2023-03-07T23:56:23.809Z,72.66
2023-03-07T23:58:54.281Z,71.87
